createdAt,value
2022-09-20T00:01:28.501Z,98851.15
2022-09-20T00:04:01.221Z,98848.63
2022-09-20T00:06:30.983Z,98852.83
2022-09-20T00:08:59.826Z,98850.09
2022-09-20T00:11:30.495Z,98852.27
2022-09-20T00:13:59.284Z,98853.70
2022-09-20T00:16:29.719Z,98859.23
2022-09-20T00:18:58.805Z,98853.45
2022-09-20T00:21:29.438Z,98857.56
2022-09-20T00:24:00.374Z,98857.42
2022-09-20T00:26:28.460Z,98857.17
2022-09-20T00:28:57.594Z,98853.23
2022-09-20T00:31:24.958Z,98853.77
2022-09-20T00:34:13.960Z,98853.87
2022-09-20T00:36:41.324Z,98851.24
2022-09-20T00:39:12.473Z,98846.03
2022-09-20T00:41:39.462Z,98847.98
2022-09-20T00:44:42.865Z,98847.92
2022-09-20T00:47:35.946Z,98849.49
2022-09-20T00:50:21.648Z,98847.89
2022-09-20T00:52:54.838Z,98846.73
2022-09-20T00:55:23.014Z,98847.28
2022-09-20T00:57:51.059Z,98847.86
2022-09-20T01:00:18.235Z,98846.80
2022-09-20T01:02:49.351Z,98845.01
2022-09-20T01:05:18.987Z,98849.23
2022-09-20T01:07:49.820Z,98849.98
2022-09-20T01:10:17.279Z,98849.02
2022-09-20T01:12:46.262Z,98846.16
2022-09-20T01:15:15.678Z,98842.27
2022-09-20T01:17:47.636Z,98844.70
2022-09-20T01:20:43.767Z,98844.74
2022-09-20T01:23:36.621Z,98849.58
2022-09-20T01:26:34.898Z,98845.66
2022-09-20T01:29:39.731Z,98850.11
2022-09-20T01:32:13.229Z,98850.14
2022-09-20T01:34:53.186Z,98851.55
2022-09-20T01:37:26.672Z,98849.42
2022-09-20T01:40:22.513Z,98850.14
2022-09-20T01:43:03.682Z,98849.16
2022-09-20T01:45:32.622Z,98853.29
2022-09-20T01:48:15.438Z,98849.08
2022-09-20T01:51:04.046Z,98850.71
2022-09-20T01:54:09.080Z,98852.61
2022-09-20T01:57:12.274Z,98852.20
2022-09-20T02:00:02.260Z,98849.77
2022-09-20T02:02:53.883Z,98853.29
2022-09-20T02:05:33.116Z,98844.54
2022-09-20T02:08:29.040Z,98849.67
2022-09-20T02:11:45.873Z,98852.05
2022-09-20T02:14:32.315Z,98853.88
2022-09-20T02:17:14.716Z,98849.56
2022-09-20T02:19:48.021Z,98846.35
2022-09-20T02:22:49.462Z,98847.73
2022-09-20T02:25:55.882Z,98850.48
2022-09-20T02:28:52.052Z,98849.63
2022-09-20T02:31:25.031Z,98846.48
2022-09-20T02:34:39.870Z,98849.31
2022-09-20T02:37:33.744Z,98849.06
2022-09-20T02:40:24.005Z,98851.96
2022-09-20T02:43:12.897Z,98856.32
2022-09-20T02:45:48.039Z,98853.39
2022-09-20T02:48:23.886Z,98853.91
2022-09-20T02:51:06.504Z,98852.48
2022-09-20T02:54:02.222Z,98848.34
2022-09-20T02:56:42.990Z,98847.69
2022-09-20T02:59:28.569Z,98845.73
2022-09-20T03:02:46.716Z,98847.08
2022-09-20T03:06:03.274Z,98845.71
2022-09-20T03:08:47.985Z,98843.20
2022-09-20T03:11:57.528Z,98842.20
2022-09-20T03:14:31.150Z,98838.11
2022-09-20T03:17:02.550Z,98841.83
2022-09-20T03:19:48.573Z,98848.73
2022-09-20T03:22:35.383Z,98849.80
2022-09-20T03:25:39.378Z,98851.78
2022-09-20T03:28:41.570Z,98851.77
2022-09-20T03:31:59.208Z,98856.80
2022-09-20T03:34:52.217Z,98863.31
2022-09-20T03:37:42.596Z,98867.44
2022-09-20T03:40:59.059Z,98876.55
2022-09-20T03:43:58.567Z,98874.57
2022-09-20T03:46:35.454Z,98867.63
2022-09-20T03:49:24.238Z,98871.63
2022-09-20T03:52:14.493Z,98872.56
2022-09-20T03:55:25.266Z,98878.30
2022-09-20T03:58:23.341Z,98885.04
2022-09-20T04:01:08.755Z,98882.54
2022-09-20T04:04:05.019Z,98886.04
2022-09-20T04:06:54.218Z,98892.36
2022-09-20T04:09:38.775Z,98888.42
2022-09-20T04:12:12.990Z,98892.52
2022-09-20T04:15:25.402Z,98899.33
2022-09-20T04:18:05.968Z,98907.38
2022-09-20T04:20:51.139Z,98903.41
2022-09-20T04:23:47.473Z,98904.66
2022-09-20T04:26:19.235Z,98899.63
2022-09-20T04:28:57.331Z,98899.02
2022-09-20T04:31:36.299Z,98894.00
2022-09-20T04:34:11.300Z,98887.23
2022-09-20T04:36:57.393Z,98891.33
2022-09-20T04:39:33.348Z,98893.11
2022-09-20T04:42:19.033Z,98895.60
2022-09-20T04:44:52.801Z,98899.56
2022-09-20T04:47:25.723Z,98903.38
2022-09-20T04:50:14.070Z,98904.90
2022-09-20T04:52:44.189Z,98911.81
2022-09-20T04:55:39.501Z,98912.27
2022-09-20T04:58:58.057Z,98913.16
2022-09-20T05:01:43.898Z,98914.35
2022-09-20T05:04:33.008Z,98915.52
2022-09-20T05:07:28.112Z,98911.67
2022-09-20T05:10:15.233Z,98907.07
2022-09-20T05:13:11.360Z,98908.77
2022-09-20T05:15:49.876Z,98912.91
2022-09-20T05:18:38.427Z,98908.83
2022-09-20T05:21:13.565Z,98905.41
2022-09-20T05:24:03.654Z,98908.98
2022-09-20T05:26:34.366Z,98909.50
2022-09-20T05:29:11.878Z,98911.16
2022-09-20T05:32:07.833Z,98907.27
2022-09-20T05:34:46.893Z,98906.38
2022-09-20T05:37:24.528Z,98906.09
2022-09-20T05:39:58.067Z,98904.06
2022-09-20T05:42:42.386Z,98905.86
2022-09-20T05:45:47.662Z,98906.30
2022-09-20T05:48:23.375Z,98913.81
2022-09-20T05:51:04.057Z,98915.43
2022-09-20T05:53:53.514Z,98912.80
2022-09-20T05:56:49.951Z,98912.66
2022-09-20T05:59:28.885Z,98909.40
2022-09-20T06:02:21.144Z,98908.09
2022-09-20T06:05:10.282Z,98908.41
2022-09-20T06:08:13.475Z,98910.41
2022-09-20T06:10:56.295Z,98911.64
2022-09-20T06:13:35.423Z,98911.03
2022-09-20T06:16:07.985Z,98912.55
2022-09-20T06:18:48.087Z,98913.34
2022-09-20T06:21:42.134Z,98916.20
2022-09-20T06:24:40.998Z,98913.00
2022-09-20T06:27:33.806Z,98923.15
2022-09-20T06:30:06.021Z,98915.36
2022-09-20T06:32:34.824Z,98912.56
2022-09-20T06:35:04.214Z,98913.15
2022-09-20T06:38:01.495Z,98920.62
2022-09-20T06:41:20.050Z,98921.52
2022-09-20T06:43:48.710Z,98924.70
2022-09-20T06:46:16.374Z,98925.01
2022-09-20T06:48:43.508Z,98928.49
2022-09-20T06:51:11.421Z,98924.95
2022-09-20T06:53:41.636Z,98925.39
2022-09-20T06:56:18.821Z,98923.83
2022-09-20T06:58:46.488Z,98918.34
2022-09-20T07:01:13.998Z,98911.88
2022-09-20T07:03:42.329Z,98916.88
2022-09-20T07:06:10.391Z,98918.41
2022-09-20T07:08:37.643Z,98923.92
2022-09-20T07:11:11.946Z,98919.16
2022-09-20T07:13:39.111Z,98924.44
2022-09-20T07:16:08.643Z,98918.73
2022-09-20T07:18:35.765Z,98922.45
2022-09-20T07:21:03.197Z,98916.60
2022-09-20T07:23:30.688Z,98916.33
2022-09-20T07:26:01.317Z,98914.27
2022-09-20T07:28:29.485Z,98915.65
2022-09-20T07:30:56.737Z,98919.50
2022-09-20T07:33:25.218Z,98914.08
2022-09-20T07:35:56.568Z,98915.98
2022-09-20T07:38:24.432Z,98919.96
2022-09-20T07:41:11.039Z,98919.55
2022-09-20T07:43:38.290Z,98918.39
2022-09-20T07:46:06.480Z,98920.58
2022-09-20T07:48:36.249Z,98920.98
2022-09-20T07:51:08.987Z,98917.67
2022-09-20T07:53:36.982Z,98912.16
2022-09-20T07:56:07.554Z,98911.74
2022-09-20T07:58:35.941Z,98909.83
2022-09-20T08:01:06.438Z,98911.52
2022-09-20T08:03:43.143Z,98907.69
2022-09-20T08:06:15.131Z,98905.67
2022-09-20T08:08:42.967Z,98906.30
2022-09-20T08:11:09.939Z,98910.14
2022-09-20T08:16:28.217Z,98910.64
2022-09-20T08:18:59.112Z,98913.69
2022-09-20T08:21:31.625Z,98914.52
2022-09-20T08:24:00.089Z,98913.93
2022-09-20T08:26:29.481Z,98915.58
2022-09-20T08:28:59.064Z,98909.58
2022-09-20T08:31:31.583Z,98912.05
2022-09-20T08:33:59.418Z,98909.92
2022-09-20T08:36:28.182Z,98909.42
2022-09-20T08:41:51.096Z,98899.70
2022-09-20T08:44:35.843Z,98899.93
2022-09-20T08:47:25.313Z,98903.63
2022-09-20T08:49:57.916Z,98903.70
2022-09-20T08:52:36.297Z,98911.39
2022-09-20T08:55:26.393Z,98915.56
2022-09-20T08:57:57.128Z,98920.14
2022-09-20T09:00:29.601Z,98914.36
2022-09-20T09:03:01.255Z,98911.11
2022-09-20T09:05:33.426Z,98906.44
2022-09-20T09:11:12.984Z,98907.48
2022-09-20T09:14:04.300Z,98909.05
2022-09-20T09:16:35.696Z,98907.63
2022-09-20T09:19:33.225Z,98906.91
2022-09-20T09:22:03.230Z,98908.48
2022-09-20T09:24:33.258Z,98906.02
2022-09-20T09:27:16.386Z,98908.95
2022-09-20T09:29:52.138Z,98909.09
2022-09-20T09:32:28.794Z,98907.13
2022-09-20T09:34:56.968Z,98908.23
2022-09-20T09:37:28.981Z,98907.92
2022-09-20T09:40:15.939Z,98909.21
2022-09-20T09:42:52.722Z,98905.73
2022-09-20T09:45:38.861Z,98904.11
2022-09-20T09:48:26.739Z,98903.78
2022-09-20T09:51:11.518Z,98905.10
2022-09-20T09:53:39.384Z,98899.31
2022-09-20T09:56:07.956Z,98902.58
2022-09-20T09:59:15.365Z,98905.52
2022-09-20T10:01:57.713Z,98902.64
2022-09-20T10:05:10.486Z,98897.85
2022-09-20T10:08:15.421Z,98898.98
2022-09-20T10:11:15.135Z,98893.38
2022-09-20T10:14:20.482Z,98892.64
2022-09-20T10:17:21.733Z,98895.34
2022-09-20T10:20:20.011Z,98893.00
2022-09-20T10:23:26.512Z,98892.10
2022-09-20T10:26:01.925Z,98895.01
2022-09-20T10:28:47.817Z,98891.16
2022-09-20T10:31:29.522Z,98884.61
2022-09-20T10:34:28.868Z,98884.98
2022-09-20T10:37:00.715Z,98889.61
2022-09-20T10:39:36.548Z,98879.44
2022-09-20T10:42:24.894Z,98878.09
2022-09-20T10:45:29.821Z,98880.05
2022-09-20T10:48:12.247Z,98880.21
2022-09-20T10:51:03.558Z,98875.37
2022-09-20T10:53:34.908Z,98871.61
2022-09-20T10:56:16.984Z,98865.59
2022-09-20T10:59:04.307Z,98863.05
2022-09-20T11:01:41.384Z,98864.14
2022-09-20T11:04:39.355Z,98864.63
2022-09-20T11:07:12.448Z,98865.73
2022-09-20T11:09:49.440Z,98851.97
2022-09-20T11:12:29.106Z,98857.40
2022-09-20T11:15:03.919Z,98852.42
2022-09-20T11:17:54.918Z,98850.67
2022-09-20T11:20:27.361Z,98844.41
2022-09-20T11:23:10.314Z,98839.05
2022-09-20T11:25:45.133Z,98845.72
2022-09-20T11:28:22.726Z,98838.27
2022-09-20T11:31:00.423Z,98840.30
2022-09-20T11:33:51.841Z,98841.27
2022-09-20T11:36:38.960Z,98845.09
2022-09-20T11:39:17.478Z,98846.17
2022-09-20T11:41:46.680Z,98847.64
2022-09-20T11:44:18.853Z,98847.91
2022-09-20T11:46:59.649Z,98843.91
2022-09-20T11:49:35.436Z,98848.71
2022-09-20T11:52:36.509Z,98855.72
2022-09-20T11:55:15.537Z,98847.99
2022-09-20T11:57:42.789Z,98851.39
2022-09-20T12:00:10.963Z,98846.01
2022-09-20T12:02:53.407Z,98855.45
2022-09-20T12:05:23.490Z,98849.55
2022-09-20T12:07:55.448Z,98852.59
2022-09-20T12:10:26.290Z,98852.06
2022-09-20T12:13:00.300Z,98846.39
2022-09-20T12:15:32.161Z,98841.20
2022-09-20T12:17:59.237Z,98843.97
2022-09-20T12:20:32.300Z,98841.67
2022-09-20T12:23:40.324Z,98842.45
2022-09-20T12:26:20.357Z,98836.20
2022-09-20T12:28:50.092Z,98838.02
2022-09-20T12:31:28.621Z,98839.71
2022-09-20T12:34:11.400Z,98835.58
2022-09-20T12:36:43.808Z,98834.45
2022-09-20T12:39:10.820Z,98839.51
2022-09-20T12:41:46.746Z,98844.66
2022-09-20T12:44:43.540Z,98844.83
2022-09-20T12:47:10.361Z,98844.60
2022-09-20T12:50:05.764Z,98841.55
2022-09-20T12:52:57.222Z,98838.69
2022-09-20T12:55:29.668Z,98838.27
2022-09-20T12:58:02.656Z,98839.00
2022-09-20T13:00:42.014Z,98836.73
2022-09-20T13:03:23.375Z,98835.16
2022-09-20T13:06:19.317Z,98829.68
2022-09-20T13:09:08.575Z,98835.82
2022-09-20T13:11:56.607Z,98828.05
2022-09-20T13:14:27.272Z,98825.66
2022-09-20T13:17:06.370Z,98817.79
2022-09-20T13:19:43.759Z,98817.72
2022-09-20T13:22:14.393Z,98821.29
2022-09-20T13:24:45.944Z,98819.15
2022-09-20T13:27:19.384Z,98816.52
2022-09-20T13:29:46.899Z,98812.08
2022-09-20T13:32:30.333Z,98808.70
2022-09-20T13:35:17.678Z,98806.27
2022-09-20T13:37:58.746Z,98805.06
2022-09-20T13:40:38.448Z,98807.52
2022-09-20T13:43:38.945Z,98813.90
2022-09-20T13:46:11.115Z,98818.54
2022-09-20T13:48:40.272Z,98811.75
2022-09-20T13:51:24.753Z,98809.91
2022-09-20T13:53:51.994Z,98810.72
2022-09-20T13:56:30.019Z,98803.64
2022-09-20T13:59:00.374Z,98797.18
2022-09-20T14:01:30.406Z,98796.55
2022-09-20T14:04:02.086Z,98801.77
2022-09-20T14:06:29.279Z,98807.65
2022-09-20T14:08:58.635Z,98808.45
2022-09-20T14:11:29.819Z,98801.80
2022-09-20T14:14:00.407Z,98797.49
2022-09-20T14:16:39.299Z,98808.05
2022-09-20T14:19:07.601Z,98801.11
2022-09-20T14:21:37.659Z,98803.26
2022-09-20T14:24:26.767Z,98803.50
2022-09-20T14:27:17.484Z,98798.90
2022-09-20T14:29:51.562Z,98798.50
2022-09-20T14:32:18.719Z,98796.21
2022-09-20T14:34:55.342Z,98791.63
2022-09-20T14:37:31.171Z,98788.77
2022-09-20T14:40:15.876Z,98784.73
2022-09-20T14:42:48.905Z,98788.02
2022-09-20T14:45:23.556Z,98798.52
2022-09-20T14:48:10.486Z,98796.14
2022-09-20T14:50:46.540Z,98795.48
2022-09-20T14:53:28.996Z,98797.21
2022-09-20T14:56:04.791Z,98798.62
2022-09-20T14:58:33.402Z,98801.54
2022-09-20T15:01:18.929Z,98802.11
2022-09-20T15:03:45.944Z,98805.56
2022-09-20T15:06:14.180Z,98804.68
2022-09-20T15:08:46.364Z,98795.29
2022-09-20T15:11:18.435Z,98793.54
2022-09-20T15:13:45.768Z,98799.66
2022-09-20T15:16:17.044Z,98806.48
2022-09-20T15:18:44.680Z,98804.97
2022-09-20T15:21:12.336Z,98792.45
2022-09-20T15:23:40.207Z,98791.86
2022-09-20T15:26:11.683Z,98798.73
2022-09-20T15:28:39.832Z,98801.32
2022-09-20T15:31:06.902Z,98809.63
2022-09-20T15:33:34.133Z,98802.67
2022-09-20T15:36:03.031Z,98798.61
2022-09-20T15:38:30.059Z,98800.49
2022-09-20T15:41:01.036Z,98800.01
2022-09-20T15:43:30.665Z,98796.01
2022-09-20T15:46:00.720Z,98797.80
2022-09-20T15:48:30.257Z,98805.04
2022-09-20T15:50:58.012Z,98800.66
2022-09-20T15:53:24.811Z,98803.92
2022-09-20T15:55:51.654Z,98803.11
2022-09-20T15:58:18.443Z,98799.84
2022-09-20T16:00:48.699Z,98810.60
2022-09-20T16:03:16.948Z,98813.65
2022-09-20T16:05:43.975Z,98812.77
2022-09-20T16:08:10.906Z,98813.83
2022-09-20T16:10:38.478Z,98824.00
2022-09-20T16:13:05.278Z,98823.79
2022-09-20T16:15:33.122Z,98822.05
2022-09-20T16:18:18.782Z,98820.66
2022-09-20T16:20:46.019Z,98821.15
2022-09-20T16:23:13.363Z,98827.26
2022-09-20T16:25:40.299Z,98828.80
2022-09-20T16:28:07.269Z,98823.64
2022-09-20T16:30:35.143Z,98822.46
2022-09-20T16:33:05.147Z,98819.92
2022-09-20T16:35:33.732Z,98812.17
2022-09-20T16:38:01.090Z,98815.96
2022-09-20T16:40:28.266Z,98817.66
2022-09-20T16:42:58.052Z,98823.32
2022-09-20T16:45:26.377Z,98821.27
2022-09-20T16:47:57.423Z,98813.68
2022-09-20T16:50:24.231Z,98814.36
2022-09-20T16:52:51.980Z,98805.38
2022-09-20T16:55:20.135Z,98798.05
2022-09-20T16:57:51.314Z,98801.42
2022-09-20T17:00:21.313Z,98800.17
2022-09-20T17:02:52.470Z,98800.58
2022-09-20T17:05:19.811Z,98794.98
2022-09-20T17:07:46.689Z,98786.02
2022-09-20T17:10:13.609Z,98798.23
2022-09-20T17:12:42.895Z,98791.06
2022-09-20T17:15:12.600Z,98781.63
2022-09-20T17:17:41.717Z,98790.51
2022-09-20T17:20:09.073Z,98801.04
2022-09-20T17:22:37.431Z,98795.94
2022-09-20T17:25:05.418Z,98809.86
2022-09-20T17:27:32.359Z,98801.45
2022-09-20T17:29:59.291Z,98809.21
2022-09-20T17:32:26.545Z,98804.14
2022-09-20T17:34:53.974Z,98806.11
2022-09-20T17:37:21.560Z,98800.48
2022-09-20T17:39:49.740Z,98796.26
2022-09-20T17:42:16.562Z,98795.31
2022-09-20T17:44:43.379Z,98787.44
2022-09-20T17:47:10.603Z,98789.96
2022-09-20T17:49:39.562Z,98785.09
2022-09-20T17:52:07.961Z,98788.27
2022-09-20T17:54:35.267Z,98798.63
2022-09-20T17:57:02.242Z,98805.45
2022-09-20T17:59:29.856Z,98816.92
2022-09-20T18:01:56.704Z,98812.95
2022-09-20T18:04:24.746Z,98808.77
2022-09-20T18:06:53.634Z,98816.72
2022-09-20T18:09:24.380Z,98816.21
2022-09-20T18:11:54.242Z,98814.43
2022-09-20T18:14:24.108Z,98823.42
2022-09-20T18:16:52.762Z,98831.73
2022-09-20T18:19:22.069Z,98829.30
2022-09-20T18:21:50.105Z,98831.52
2022-09-20T18:24:17.095Z,98829.93
2022-09-20T18:26:44.674Z,98824.82
2022-09-20T18:29:15.928Z,98826.31
2022-09-20T18:31:49.278Z,98825.29
2022-09-20T18:34:19.297Z,98818.02
2022-09-20T18:36:52.070Z,98820.61
2022-09-20T18:39:21.261Z,98827.23
2022-09-20T18:41:49.139Z,98832.56
2022-09-20T18:44:18.022Z,98833.80
2022-09-20T18:46:45.943Z,98829.02
2022-09-20T18:49:14.591Z,98822.04
2022-09-20T18:51:42.634Z,98827.44
2022-09-20T18:54:11.355Z,98829.50
2022-09-20T18:56:40.932Z,98826.90
2022-09-20T18:59:22.226Z,98829.74
2022-09-20T19:01:55.026Z,98835.76
2022-09-20T19:04:46.984Z,98835.28
2022-09-20T19:07:32.834Z,98833.91
2022-09-20T19:10:20.400Z,98838.54
2022-09-20T19:13:17.305Z,98833.76
2022-09-20T19:16:09.695Z,98826.89
2022-09-20T19:18:58.254Z,98819.45
2022-09-20T19:22:03.153Z,98827.06
2022-09-20T19:24:56.225Z,98827.85
2022-09-20T19:27:23.146Z,98818.58
2022-09-20T19:29:50.485Z,98816.25
2022-09-20T19:32:20.738Z,98818.91
2022-09-20T19:34:51.145Z,98821.33
2022-09-20T19:37:34.566Z,98818.92
2022-09-20T19:40:32.385Z,98825.15
2022-09-20T19:43:14.490Z,98827.07
2022-09-20T19:46:11.013Z,98831.40
2022-09-20T19:49:10.787Z,98826.46
2022-09-20T19:51:39.800Z,98832.80
2022-09-20T19:54:11.448Z,98825.80
2022-09-20T19:56:58.950Z,98815.83
2022-09-20T19:59:27.568Z,98823.69
2022-09-20T20:01:55.808Z,98821.23
2022-09-20T20:04:23.588Z,98816.77
2022-09-20T20:06:59.339Z,98816.10
2022-09-20T20:09:39.391Z,98825.15
2022-09-20T20:12:15.459Z,98826.38
2022-09-20T20:15:04.001Z,98824.49
2022-09-20T20:17:52.963Z,98819.88
2022-09-20T20:20:40.302Z,98817.90
2022-09-20T20:23:19.109Z,98822.55
2022-09-20T20:26:02.284Z,98817.98
2022-09-20T20:28:30.061Z,98821.50
2022-09-20T20:31:00.120Z,98820.81
2022-09-20T20:33:28.562Z,98816.91
2022-09-20T20:35:57.386Z,98815.56
2022-09-20T20:38:25.892Z,98821.84
2022-09-20T20:41:06.204Z,98817.70
2022-09-20T20:43:35.994Z,98810.57
2022-09-20T20:46:05.020Z,98813.13
2022-09-20T20:48:32.274Z,98812.13
2022-09-20T20:51:09.349Z,98812.99
2022-09-20T20:53:44.429Z,98805.02
2022-09-20T20:56:17.300Z,98805.89
2022-09-20T20:58:45.563Z,98800.92
2022-09-20T21:01:23.854Z,98800.77
2022-09-20T21:03:52.598Z,98799.98
2022-09-20T21:06:21.155Z,98799.45
2022-09-20T21:08:49.915Z,98794.16
2022-09-20T21:11:19.981Z,98792.90
2022-09-20T21:13:49.997Z,98790.30
2022-09-20T21:16:21.009Z,98795.83
2022-09-20T21:18:49.795Z,98800.04
2022-09-20T21:21:18.428Z,98797.91
2022-09-20T21:23:47.894Z,98797.69
2022-09-20T21:26:15.558Z,98794.66
2022-09-20T21:28:45.551Z,98801.27
2022-09-20T21:31:13.573Z,98797.38
2022-09-20T21:33:42.705Z,98798.85
2022-09-20T21:36:12.411Z,98799.79
2022-09-20T21:38:42.056Z,98803.16
2022-09-20T21:41:14.417Z,98804.89
2022-09-20T21:43:43.275Z,98810.45
2022-09-20T21:46:18.354Z,98805.10
2022-09-20T21:48:46.965Z,98805.95
2022-09-20T21:51:18.239Z,98817.01
2022-09-20T21:53:45.881Z,98799.32
2022-09-20T21:56:17.036Z,98816.80
2022-09-20T21:58:45.398Z,98803.02
2022-09-20T22:01:15.728Z,98793.09
2022-09-20T22:03:44.805Z,98792.45
2022-09-20T22:06:14.463Z,98785.06
2022-09-20T22:08:51.263Z,98792.73
2022-09-20T22:11:20.385Z,98805.91
2022-09-20T22:13:50.451Z,98796.70
2022-09-20T22:16:20.411Z,98798.43
2022-09-20T22:18:48.017Z,98797.63
2022-09-20T22:21:24.361Z,98817.88
2022-09-20T22:23:53.671Z,98812.73
2022-09-20T22:26:21.712Z,98808.66
2022-09-20T22:28:49.355Z,98803.54
2022-09-20T22:31:28.077Z,98806.00
2022-09-20T22:33:57.405Z,98812.21
2022-09-20T22:36:28.025Z,98809.20
2022-09-20T22:38:55.527Z,98809.86
2022-09-20T22:41:23.002Z,98807.02
2022-09-20T22:43:50.210Z,98806.27
2022-09-20T22:46:23.046Z,98803.77
2022-09-20T22:48:50.854Z,98800.70
2022-09-20T22:51:26.673Z,98804.71
2022-09-20T22:53:54.336Z,98800.30
2022-09-20T22:56:28.453Z,98808.92
2022-09-20T22:59:15.157Z,98800.59
2022-09-20T23:01:45.250Z,98811.36
2022-09-20T23:04:16.111Z,98801.80
2022-09-20T23:06:48.896Z,98792.14
2022-09-20T23:09:17.993Z,98804.05
2022-09-20T23:11:46.104Z,98808.55
2022-09-20T23:14:22.837Z,98805.34
2022-09-20T23:16:49.867Z,98805.89
2022-09-20T23:19:17.554Z,98808.94
2022-09-20T23:21:44.940Z,98807.59
2022-09-20T23:24:14.098Z,98804.76
2022-09-20T23:26:42.478Z,98810.95
2022-09-20T23:29:15.184Z,98800.48
2022-09-20T23:31:46.211Z,98808.07
2022-09-20T23:34:15.605Z,98797.43
2022-09-20T23:36:43.471Z,98800.10
2022-09-20T23:39:11.335Z,98797.11
2022-09-20T23:41:40.738Z,98794.08
2022-09-20T23:44:09.539Z,98797.53
2022-09-20T23:46:37.800Z,98782.67
2022-09-20T23:49:06.097Z,98781.88
2022-09-20T23:51:34.866Z,98779.81
2022-09-20T23:54:02.324Z,98774.97
2022-09-20T23:56:29.677Z,98788.78
2022-09-20T23:58:56.948Z,98785.70
